sensor_id;sensor_type;location;lat;lon;timestamp;temperature;humidity
48994;DHT22;34804;49.214;12.276;2022-10-17T00:02:24;12.10;95.10
48994;DHT22;34804;49.214;12.276;2022-10-17T00:04:51;12.00;94.80
48994;DHT22;34804;49.214;12.276;2022-10-17T00:07:18;12.00;95.10
48994;DHT22;34804;49.214;12.276;2022-10-17T00:09:45;12.00;94.90
48994;DHT22;34804;49.214;12.276;2022-10-17T00:12:11;12.00;94.80
48994;DHT22;34804;49.214;12.276;2022-10-17T00:14:38;12.00;94.80
48994;DHT22;34804;49.214;12.276;2022-10-17T00:17:05;11.90;94.80
48994;DHT22;34804;49.214;12.276;2022-10-17T00:19:32;11.90;94.70
48994;DHT22;34804;49.214;12.276;2022-10-17T00:21:59;11.90;94.60
48994;DHT22;34804;49.214;12.276;2022-10-17T00:24:26;11.90;95.00
48994;DHT22;34804;49.214;12.276;2022-10-17T00:26:53;11.80;95.00
48994;DHT22;34804;49.214;12.276;2022-10-17T00:29:20;11.80;95.20
48994;DHT22;34804;49.214;12.276;2022-10-17T00:31:47;11.80;95.20
48994;DHT22;34804;49.214;12.276;2022-10-17T00:34:14;11.80;95.20
48994;DHT22;34804;49.214;12.276;2022-10-17T00:36:41;11.80;95.20
48994;DHT22;34804;49.214;12.276;2022-10-17T00:39:08;11.70;95.20
48994;DHT22;34804;49.214;12.276;2022-10-17T00:41:35;11.80;95.30
48994;DHT22;34804;49.214;12.276;2022-10-17T00:44:04;11.70;95.00
48994;DHT22;34804;49.214;12.276;2022-10-17T00:46:33;11.70;95.10
48994;DHT22;34804;49.214;12.276;2022-10-17T00:49:06;11.60;94.90
48994;DHT22;34804;49.214;12.276;2022-10-17T00:51:37;11.60;94.80
48994;DHT22;34804;49.214;12.276;2022-10-17T00:54:07;11.60;94.90
48994;DHT22;34804;49.214;12.276;2022-10-17T00:56:35;11.60;94.90
48994;DHT22;34804;49.214;12.276;2022-10-17T00:59:02;11.50;94.70
48994;DHT22;34804;49.214;12.276;2022-10-17T01:01:29;11.50;94.70
48994;DHT22;34804;49.214;12.276;2022-10-17T01:03:56;11.50;94.80
48994;DHT22;34804;49.214;12.276;2022-10-17T01:06:23;11.40;94.80
48994;DHT22;34804;49.214;12.276;2022-10-17T01:08:50;11.40;94.70
48994;DHT22;34804;49.214;12.276;2022-10-17T01:11:21;11.40;94.70
48994;DHT22;34804;49.214;12.276;2022-10-17T01:14:03;11.40;94.70
48994;DHT22;34804;49.214;12.276;2022-10-17T01:22:02;11.30;94.50
48994;DHT22;34804;49.214;12.276;2022-10-17T01:27:35;11.30;94.60
48994;DHT22;34804;49.214;12.276;2022-10-17T01:33:10;11.30;94.60
48994;DHT22;34804;49.214;12.276;2022-10-17T01:35:54;11.30;94.80
48994;DHT22;34804;49.214;12.276;2022-10-17T01:38:37;11.20;94.70
48994;DHT22;34804;49.214;12.276;2022-10-17T01:41:26;11.20;94.70
48994;DHT22;34804;49.214;12.276;2022-10-17T01:44:04;11.20;95.00
48994;DHT22;34804;49.214;12.276;2022-10-17T01:46:42;11.20;94.90
48994;DHT22;34804;49.214;12.276;2022-10-17T01:49:12;11.10;94.80
48994;DHT22;34804;49.214;12.276;2022-10-17T01:51:46;11.20;94.80
48994;DHT22;34804;49.214;12.276;2022-10-17T01:54:22;11.10;94.90
48994;DHT22;34804;49.214;12.276;2022-10-17T01:56:54;11.10;94.80
48994;DHT22;34804;49.214;12.276;2022-10-17T01:59:43;11.00;94.60
48994;DHT22;34804;49.214;12.276;2022-10-17T02:02:13;11.00;94.50
48994;DHT22;34804;49.214;12.276;2022-10-17T02:04:41;10.90;94.50
48994;DHT22;34804;49.214;12.276;2022-10-17T02:07:09;10.90;94.80
48994;DHT22;34804;49.214;12.276;2022-10-17T02:09:36;11.00;95.00
48994;DHT22;34804;49.214;12.276;2022-10-17T02:15:22;10.90;94.70
48994;DHT22;34804;49.214;12.276;2022-10-17T02:18:15;11.00;95.20
48994;DHT22;34804;49.214;12.276;2022-10-17T02:23:35;11.00;94.80
48994;DHT22;34804;49.214;12.276;2022-10-17T02:26:34;11.00;94.80
48994;DHT22;34804;49.214;12.276;2022-10-17T02:31:39;11.00;94.40
48994;DHT22;34804;49.214;12.276;2022-10-17T02:34:26;10.90;94.20
48994;DHT22;34804;49.214;12.276;2022-10-17T02:36:58;10.90;94.30
48994;DHT22;34804;49.214;12.276;2022-10-17T02:39:27;10.90;94.40
48994;DHT22;34804;49.214;12.276;2022-10-17T02:41:56;10.90;94.50
48994;DHT22;34804;49.214;12.276;2022-10-17T02:44:25;10.90;94.50
48994;DHT22;34804;49.214;12.276;2022-10-17T02:47:11;10.90;94.30
48994;DHT22;34804;49.214;12.276;2022-10-17T02:49:40;10.90;94.30
48994;DHT22;34804;49.214;12.276;2022-10-17T02:52:15;10.90;94.10
48994;DHT22;34804;49.214;12.276;2022-10-17T02:55:02;10.90;94.00
48994;DHT22;34804;49.214;12.276;2022-10-17T02:57:41;10.80;94.20
48994;DHT22;34804;49.214;12.276;2022-10-17T03:00:12;10.80;94.50
48994;DHT22;34804;49.214;12.276;2022-10-17T03:02:45;10.80;94.80
48994;DHT22;34804;49.214;12.276;2022-10-17T03:05:24;10.90;94.70
48994;DHT22;34804;49.214;12.276;2022-10-17T03:07:52;10.80;94.60
48994;DHT22;34804;49.214;12.276;2022-10-17T03:10:20;10.80;94.60
48994;DHT22;34804;49.214;12.276;2022-10-17T03:12:47;10.80;94.60
48994;DHT22;34804;49.214;12.276;2022-10-17T03:15:14;10.80;94.60
48994;DHT22;34804;49.214;12.276;2022-10-17T03:17:40;10.80;94.70
48994;DHT22;34804;49.214;12.276;2022-10-17T03:20:08;10.80;94.70
48994;DHT22;34804;49.214;12.276;2022-10-17T03:22:35;10.80;94.70
48994;DHT22;34804;49.214;12.276;2022-10-17T03:25:02;10.80;94.40
48994;DHT22;34804;49.214;12.276;2022-10-17T03:27:29;10.80;94.40
48994;DHT22;34804;49.214;12.276;2022-10-17T03:29:56;10.80;94.50
48994;DHT22;34804;49.214;12.276;2022-10-17T03:32:23;10.80;94.60
48994;DHT22;34804;49.214;12.276;2022-10-17T03:34:49;10.80;94.70
48994;DHT22;34804;49.214;12.276;2022-10-17T03:37:16;10.70;94.60
48994;DHT22;34804;49.214;12.276;2022-10-17T03:39:43;10.70;94.70
48994;DHT22;34804;49.214;12.276;2022-10-17T03:42:09;10.70;94.70
48994;DHT22;34804;49.214;12.276;2022-10-17T03:44:36;10.70;94.70
48994;DHT22;34804;49.214;12.276;2022-10-17T03:47:03;10.70;94.80
48994;DHT22;34804;49.214;12.276;2022-10-17T03:49:30;10.70;95.00
48994;DHT22;34804;49.214;12.276;2022-10-17T03:51:56;10.60;94.70
48994;DHT22;34804;49.214;12.276;2022-10-17T03:54:23;10.70;95.10
48994;DHT22;34804;49.214;12.276;2022-10-17T03:56:50;10.70;95.10
48994;DHT22;34804;49.214;12.276;2022-10-17T03:59:17;10.60;94.70
48994;DHT22;34804;49.214;12.276;2022-10-17T04:01:44;10.60;95.10
48994;DHT22;34804;49.214;12.276;2022-10-17T04:04:10;10.60;95.00
48994;DHT22;34804;49.214;12.276;2022-10-17T04:06:37;10.60;94.90
48994;DHT22;34804;49.214;12.276;2022-10-17T04:09:06;10.50;94.80
48994;DHT22;34804;49.214;12.276;2022-10-17T04:11:33;10.60;95.00
48994;DHT22;34804;49.214;12.276;2022-10-17T04:14:00;10.50;95.20
48994;DHT22;34804;49.214;12.276;2022-10-17T04:16:27;10.50;95.20
48994;DHT22;34804;49.214;12.276;2022-10-17T04:18:56;10.50;94.90
48994;DHT22;34804;49.214;12.276;2022-10-17T04:21:25;10.50;95.00
48994;DHT22;34804;49.214;12.276;2022-10-17T04:23:59;10.50;95.00
48994;DHT22;34804;49.214;12.276;2022-10-17T04:26:26;10.50;95.00
48994;DHT22;34804;49.214;12.276;2022-10-17T04:28:53;10.50;95.10
48994;DHT22;34804;49.214;12.276;2022-10-17T04:31:20;10.50;95.00
48994;DHT22;34804;49.214;12.276;2022-10-17T04:33:48;10.40;94.70
48994;DHT22;34804;49.214;12.276;2022-10-17T04:36:17;10.30;94.90
48994;DHT22;34804;49.214;12.276;2022-10-17T04:38:45;10.40;95.00
48994;DHT22;34804;49.214;12.276;2022-10-17T04:41:14;10.40;95.20
48994;DHT22;34804;49.214;12.276;2022-10-17T04:43:41;10.40;95.10
48994;DHT22;34804;49.214;12.276;2022-10-17T04:46:14;10.50;95.30
48994;DHT22;34804;49.214;12.276;2022-10-17T04:48:41;10.50;95.40
48994;DHT22;34804;49.214;12.276;2022-10-17T04:51:12;10.60;95.20
48994;DHT22;34804;49.214;12.276;2022-10-17T04:53:40;10.50;94.90
48994;DHT22;34804;49.214;12.276;2022-10-17T04:56:13;10.40;94.90
48994;DHT22;34804;49.214;12.276;2022-10-17T04:58:41;10.40;95.00
48994;DHT22;34804;49.214;12.276;2022-10-17T05:01:18;10.40;95.20
48994;DHT22;34804;49.214;12.276;2022-10-17T05:03:46;10.50;95.40
48994;DHT22;34804;49.214;12.276;2022-10-17T05:06:15;10.60;95.30
48994;DHT22;34804;49.214;12.276;2022-10-17T05:08:42;10.60;95.50
48994;DHT22;34804;49.214;12.276;2022-10-17T05:11:28;10.60;95.20
48994;DHT22;34804;49.214;12.276;2022-10-17T05:14:00;10.50;95.20
48994;DHT22;34804;49.214;12.276;2022-10-17T05:16:28;10.50;95.10
48994;DHT22;34804;49.214;12.276;2022-10-17T05:18:56;10.50;94.90
48994;DHT22;34804;49.214;12.276;2022-10-17T05:21:24;10.50;95.10
48994;DHT22;34804;49.214;12.276;2022-10-17T05:23:52;10.50;95.20
48994;DHT22;34804;49.214;12.276;2022-10-17T05:26:19;10.50;95.20
48994;DHT22;34804;49.214;12.276;2022-10-17T05:28:46;10.50;95.00
48994;DHT22;34804;49.214;12.276;2022-10-17T05:31:13;10.40;95.00
48994;DHT22;34804;49.214;12.276;2022-10-17T05:33:40;10.30;94.80
48994;DHT22;34804;49.214;12.276;2022-10-17T05:36:07;10.20;95.00
48994;DHT22;34804;49.214;12.276;2022-10-17T05:38:34;10.20;95.20
48994;DHT22;34804;49.214;12.276;2022-10-17T05:41:02;10.10;95.20
48994;DHT22;34804;49.214;12.276;2022-10-17T05:43:30;10.20;95.40
48994;DHT22;34804;49.214;12.276;2022-10-17T05:45:57;10.10;95.40
48994;DHT22;34804;49.214;12.276;2022-10-17T05:48:24;10.10;95.60
48994;DHT22;34804;49.214;12.276;2022-10-17T05:50:57;10.10;95.50
48994;DHT22;34804;49.214;12.276;2022-10-17T05:53:25;10.00;95.50
48994;DHT22;34804;49.214;12.276;2022-10-17T05:55:57;10.00;95.50
48994;DHT22;34804;49.214;12.276;2022-10-17T05:58:24;10.10;95.60
48994;DHT22;34804;49.214;12.276;2022-10-17T06:01:11;10.00;95.40
48994;DHT22;34804;49.214;12.276;2022-10-17T06:03:38;10.00;95.60
48994;DHT22;34804;49.214;12.276;2022-10-17T06:06:07;9.90;95.50
48994;DHT22;34804;49.214;12.276;2022-10-17T06:08:34;10.00;95.60
48994;DHT22;34804;49.214;12.276;2022-10-17T06:11:00;10.00;95.60
48994;DHT22;34804;49.214;12.276;2022-10-17T06:13:34;10.00;95.70
48994;DHT22;34804;49.214;12.276;2022-10-17T06:16:01;10.00;95.40
48994;DHT22;34804;49.214;12.276;2022-10-17T06:18:28;10.00;95.40
48994;DHT22;34804;49.214;12.276;2022-10-17T06:21:02;10.00;95.40
48994;DHT22;34804;49.214;12.276;2022-10-17T06:23:29;10.10;95.60
48994;DHT22;34804;49.214;12.276;2022-10-17T06:26:00;10.10;95.50
48994;DHT22;34804;49.214;12.276;2022-10-17T06:28:28;10.10;95.30
48994;DHT22;34804;49.214;12.276;2022-10-17T06:30:55;10.10;95.50
48994;DHT22;34804;49.214;12.276;2022-10-17T06:33:22;10.20;95.70
48994;DHT22;34804;49.214;12.276;2022-10-17T06:35:55;10.30;95.70
48994;DHT22;34804;49.214;12.276;2022-10-17T06:38:22;10.30;95.50
48994;DHT22;34804;49.214;12.276;2022-10-17T06:40:52;10.30;95.40
48994;DHT22;34804;49.214;12.276;2022-10-17T06:43:20;10.50;95.70
48994;DHT22;34804;49.214;12.276;2022-10-17T06:45:53;10.60;95.50
48994;DHT22;34804;49.214;12.276;2022-10-17T06:48:20;10.70;95.20
48994;DHT22;34804;49.214;12.276;2022-10-17T06:50:47;10.70;94.90
48994;DHT22;34804;49.214;12.276;2022-10-17T06:53:13;10.70;94.20
48994;DHT22;34804;49.214;12.276;2022-10-17T06:55:40;10.70;94.50
48994;DHT22;34804;49.214;12.276;2022-10-17T06:58:08;10.60;93.30
48994;DHT22;34804;49.214;12.276;2022-10-17T07:00:35;10.50;93.50
48994;DHT22;34804;49.214;12.276;2022-10-17T07:03:02;10.50;93.60
48994;DHT22;34804;49.214;12.276;2022-10-17T07:05:29;10.50;93.70
48994;DHT22;34804;49.214;12.276;2022-10-17T07:07:56;10.50;93.90
48994;DHT22;34804;49.214;12.276;2022-10-17T07:10:22;10.70;94.40
48994;DHT22;34804;49.214;12.276;2022-10-17T07:12:49;10.80;93.80
48994;DHT22;34804;49.214;12.276;2022-10-17T07:15:16;10.70;93.40
48994;DHT22;34804;49.214;12.276;2022-10-17T07:17:43;10.70;93.30
48994;DHT22;34804;49.214;12.276;2022-10-17T07:20:13;10.70;93.30
48994;DHT22;34804;49.214;12.276;2022-10-17T07:22:40;10.80;93.70
48994;DHT22;34804;49.214;12.276;2022-10-17T07:25:07;10.80;93.80
48994;DHT22;34804;49.214;12.276;2022-10-17T07:27:34;10.90;93.60
48994;DHT22;34804;49.214;12.276;2022-10-17T07:30:01;10.90;93.70
48994;DHT22;34804;49.214;12.276;2022-10-17T07:32:29;11.00;93.70
48994;DHT22;34804;49.214;12.276;2022-10-17T07:34:55;11.10;93.80
48994;DHT22;34804;49.214;12.276;2022-10-17T07:37:22;11.10;93.10
48994;DHT22;34804;49.214;12.276;2022-10-17T07:39:49;11.00;93.40
48994;DHT22;34804;49.214;12.276;2022-10-17T07:42:15;11.10;93.70
48994;DHT22;34804;49.214;12.276;2022-10-17T07:44:43;11.20;93.50
48994;DHT22;34804;49.214;12.276;2022-10-17T07:47:13;11.20;93.50
48994;DHT22;34804;49.214;12.276;2022-10-17T07:49:39;11.30;93.80
48994;DHT22;34804;49.214;12.276;2022-10-17T07:52:10;11.30;93.20
48994;DHT22;34804;49.214;12.276;2022-10-17T07:54:37;11.40;93.40
48994;DHT22;34804;49.214;12.276;2022-10-17T07:57:04;11.60;93.80
48994;DHT22;34804;49.214;12.276;2022-10-17T07:59:32;11.70;93.30
48994;DHT22;34804;49.214;12.276;2022-10-17T08:01:59;11.80;93.30
48994;DHT22;34804;49.214;12.276;2022-10-17T08:04:27;11.80;93.10
48994;DHT22;34804;49.214;12.276;2022-10-17T08:06:54;11.90;93.20
48994;DHT22;34804;49.214;12.276;2022-10-17T08:09:36;12.10;93.30
48994;DHT22;34804;49.214;12.276;2022-10-17T08:12:03;12.00;92.70
48994;DHT22;34804;49.214;12.276;2022-10-17T08:14:30;12.10;93.20
48994;DHT22;34804;49.214;12.276;2022-10-17T08:16:57;12.10;92.70
48994;DHT22;34804;49.214;12.276;2022-10-17T08:19:24;12.20;93.30
48994;DHT22;34804;49.214;12.276;2022-10-17T08:21:51;12.10;92.90
48994;DHT22;34804;49.214;12.276;2022-10-17T08:24:19;12.30;93.40
48994;DHT22;34804;49.214;12.276;2022-10-17T08:26:46;12.50;93.40
48994;DHT22;34804;49.214;12.276;2022-10-17T08:29:17;12.70;93.10
48994;DHT22;34804;49.214;12.276;2022-10-17T08:31:44;12.80;92.30
48994;DHT22;34804;49.214;12.276;2022-10-17T08:34:14;12.90;91.90
48994;DHT22;34804;49.214;12.276;2022-10-17T08:36:41;13.00;92.30
48994;DHT22;34804;49.214;12.276;2022-10-17T08:39:08;12.90;91.80
48994;DHT22;34804;49.214;12.276;2022-10-17T08:42:24;12.90;92.00
48994;DHT22;34804;49.214;12.276;2022-10-17T08:47:45;13.10;92.70
48994;DHT22;34804;49.214;12.276;2022-10-17T08:50:41;13.30;92.70
48994;DHT22;34804;49.214;12.276;2022-10-17T08:53:23;13.30;92.50
48994;DHT22;34804;49.214;12.276;2022-10-17T08:55:52;13.40;92.10
48994;DHT22;34804;49.214;12.276;2022-10-17T08:58:25;13.50;92.50
48994;DHT22;34804;49.214;12.276;2022-10-17T09:01:01;13.60;92.00
48994;DHT22;34804;49.214;12.276;2022-10-17T09:06:16;13.90;91.90
48994;DHT22;34804;49.214;12.276;2022-10-17T09:11:46;14.20;92.10
48994;DHT22;34804;49.214;12.276;2022-10-17T09:22:32;14.80;90.60
48994;DHT22;34804;49.214;12.276;2022-10-17T09:25:03;14.90;91.10
48994;DHT22;34804;49.214;12.276;2022-10-17T09:27:45;15.10;91.20
48994;DHT22;34804;49.214;12.276;2022-10-17T09:33:17;15.40;90.50
48994;DHT22;34804;49.214;12.276;2022-10-17T09:36:10;15.60;89.50
48994;DHT22;34804;49.214;12.276;2022-10-17T09:38:41;15.80;89.30
48994;DHT22;34804;49.214;12.276;2022-10-17T09:41:15;16.00;88.90
48994;DHT22;34804;49.214;12.276;2022-10-17T09:44:23;16.20;89.20
48994;DHT22;34804;49.214;12.276;2022-10-17T09:47:34;16.30;88.10
48994;DHT22;34804;49.214;12.276;2022-10-17T09:49:52;16.40;88.30
48994;DHT22;34804;49.214;12.276;2022-10-17T09:52:24;16.70;88.20
48994;DHT22;34804;49.214;12.276;2022-10-17T09:54:58;16.90;88.10
48994;DHT22;34804;49.214;12.276;2022-10-17T09:57:25;17.20;88.00
48994;DHT22;34804;49.214;12.276;2022-10-17T09:59:58;17.30;86.80
48994;DHT22;34804;49.214;12.276;2022-10-17T10:02:27;17.50;88.00
48994;DHT22;34804;49.214;12.276;2022-10-17T10:07:36;17.80;86.50
48994;DHT22;34804;49.214;12.276;2022-10-17T10:10:06;17.90;85.80
48994;DHT22;34804;49.214;12.276;2022-10-17T10:12:37;18.10;85.20
48994;DHT22;34804;49.214;12.276;2022-10-17T10:15:31;18.30;84.70
48994;DHT22;34804;49.214;12.276;2022-10-17T10:17:59;18.40;84.40
48994;DHT22;34804;49.214;12.276;2022-10-17T10:20:33;18.60;84.40
48994;DHT22;34804;49.214;12.276;2022-10-17T10:23:05;18.80;84.00
48994;DHT22;34804;49.214;12.276;2022-10-17T10:25:33;19.10;83.60
48994;DHT22;34804;49.214;12.276;2022-10-17T10:28:01;19.20;80.90
48994;DHT22;34804;49.214;12.276;2022-10-17T10:30:30;19.30;80.40
48994;DHT22;34804;49.214;12.276;2022-10-17T10:33:04;19.50;81.10
48994;DHT22;34804;49.214;12.276;2022-10-17T10:35:34;19.50;78.80
48994;DHT22;34804;49.214;12.276;2022-10-17T10:38:07;19.60;77.10
48994;DHT22;34804;49.214;12.276;2022-10-17T10:40:55;19.80;78.80
48994;DHT22;34804;49.214;12.276;2022-10-17T10:43:36;19.80;75.90
48994;DHT22;34804;49.214;12.276;2022-10-17T10:46:15;20.00;75.00
48994;DHT22;34804;49.214;12.276;2022-10-17T10:49:00;20.30;74.90
48994;DHT22;34804;49.214;12.276;2022-10-17T10:51:33;20.50;75.20
48994;DHT22;34804;49.214;12.276;2022-10-17T10:54:09;20.50;73.30
48994;DHT22;34804;49.214;12.276;2022-10-17T10:56:40;20.80;75.50
48994;DHT22;34804;49.214;12.276;2022-10-17T10:59:23;20.90;72.60
48994;DHT22;34804;49.214;12.276;2022-10-17T11:05:26;21.20;73.30
48994;DHT22;34804;49.214;12.276;2022-10-17T11:10:54;21.50;69.60
48994;DHT22;34804;49.214;12.276;2022-10-17T11:13:29;21.70;70.60
48994;DHT22;34804;49.214;12.276;2022-10-17T11:16:27;21.80;68.40
48994;DHT22;34804;49.214;12.276;2022-10-17T11:19:13;22.00;67.90
48994;DHT22;34804;49.214;12.276;2022-10-17T11:21:55;22.30;70.00
48994;DHT22;34804;49.214;12.276;2022-10-17T11:24:29;22.60;70.10
48994;DHT22;34804;49.214;12.276;2022-10-17T11:27:00;22.80;68.20
48994;DHT22;34804;49.214;12.276;2022-10-17T11:29:31;22.80;64.50
48994;DHT22;34804;49.214;12.276;2022-10-17T11:32:12;22.60;66.60
48994;DHT22;34804;49.214;12.276;2022-10-17T11:34:45;22.80;67.80
48994;DHT22;34804;49.214;12.276;2022-10-17T11:37:25;22.90;64.10
48994;DHT22;34804;49.214;12.276;2022-10-17T11:39:59;22.90;63.50
48994;DHT22;34804;49.214;12.276;2022-10-17T11:42:36;22.90;61.60
48994;DHT22;34804;49.214;12.276;2022-10-17T11:45:13;23.20;65.50
48994;DHT22;34804;49.214;12.276;2022-10-17T11:47:58;23.20;64.80
48994;DHT22;34804;49.214;12.276;2022-10-17T11:50:30;23.30;61.70
48994;DHT22;34804;49.214;12.276;2022-10-17T11:53:22;23.00;62.50
48994;DHT22;34804;49.214;12.276;2022-10-17T11:55:51;22.80;62.40
48994;DHT22;34804;49.214;12.276;2022-10-17T11:58:35;22.90;66.20
48994;DHT22;34804;49.214;12.276;2022-10-17T12:01:38;23.10;62.60
48994;DHT22;34804;49.214;12.276;2022-10-17T12:04:58;23.00;60.60
48994;DHT22;34804;49.214;12.276;2022-10-17T12:07:20;23.00;61.00
48994;DHT22;34804;49.214;12.276;2022-10-17T12:12:32;23.20;59.70
48994;DHT22;34804;49.214;12.276;2022-10-17T12:28:41;24.60;53.20
48994;DHT22;34804;49.214;12.276;2022-10-17T12:31:09;24.20;53.70
48994;DHT22;34804;49.214;12.276;2022-10-17T12:33:51;24.10;55.70
48994;DHT22;34804;49.214;12.276;2022-10-17T12:46:47;25.60;51.30
48994;DHT22;34804;49.214;12.276;2022-10-17T13:02:52;27.70;47.30
48994;DHT22;34804;49.214;12.276;2022-10-17T13:05:32;27.80;46.60
48994;DHT22;34804;49.214;12.276;2022-10-17T13:08:03;27.40;45.90
48994;DHT22;34804;49.214;12.276;2022-10-17T13:10:35;26.70;49.20
48994;DHT22;34804;49.214;12.276;2022-10-17T13:13:45;26.70;49.70
48994;DHT22;34804;49.214;12.276;2022-10-17T13:16:34;26.30;47.90
48994;DHT22;34804;49.214;12.276;2022-10-17T13:19:03;26.30;48.50
48994;DHT22;34804;49.214;12.276;2022-10-17T13:21:38;26.20;50.30
48994;DHT22;34804;49.214;12.276;2022-10-17T13:24:31;26.20;50.20
48994;DHT22;34804;49.214;12.276;2022-10-17T13:26:58;26.40;49.20
48994;DHT22;34804;49.214;12.276;2022-10-17T13:29:27;26.20;49.50
48994;DHT22;34804;49.214;12.276;2022-10-17T13:31:58;26.20;49.70
48994;DHT22;34804;49.214;12.276;2022-10-17T13:34:27;25.80;50.50
48994;DHT22;34804;49.214;12.276;2022-10-17T13:36:56;25.80;48.40
48994;DHT22;34804;49.214;12.276;2022-10-17T13:39:26;25.80;50.70
48994;DHT22;34804;49.214;12.276;2022-10-17T13:42:24;25.80;50.30
48994;DHT22;34804;49.214;12.276;2022-10-17T13:44:52;25.60;49.20
48994;DHT22;34804;49.214;12.276;2022-10-17T13:47:27;25.50;49.20
48994;DHT22;34804;49.214;12.276;2022-10-17T13:49:55;25.20;49.80
48994;DHT22;34804;49.214;12.276;2022-10-17T13:52:26;24.90;52.40
48994;DHT22;34804;49.214;12.276;2022-10-17T13:55:08;24.50;51.50
48994;DHT22;34804;49.214;12.276;2022-10-17T13:57:42;24.60;53.80
48994;DHT22;34804;49.214;12.276;2022-10-17T14:00:19;24.50;53.40
48994;DHT22;34804;49.214;12.276;2022-10-17T14:02:47;24.50;54.90
48994;DHT22;34804;49.214;12.276;2022-10-17T14:05:17;25.00;53.20
48994;DHT22;34804;49.214;12.276;2022-10-17T14:10:37;25.60;50.00
48994;DHT22;34804;49.214;12.276;2022-10-17T14:13:06;25.70;49.20
48994;DHT22;34804;49.214;12.276;2022-10-17T14:15:44;25.80;50.00
48994;DHT22;34804;49.214;12.276;2022-10-17T14:18:27;26.10;46.80
48994;DHT22;34804;49.214;12.276;2022-10-17T14:21:01;26.70;48.70
48994;DHT22;34804;49.214;12.276;2022-10-17T14:23:50;27.20;46.20
48994;DHT22;34804;49.214;12.276;2022-10-17T14:26:19;26.30;48.60
48994;DHT22;34804;49.214;12.276;2022-10-17T14:29:05;26.30;49.80
48994;DHT22;34804;49.214;12.276;2022-10-17T14:31:34;26.00;49.70
48994;DHT22;34804;49.214;12.276;2022-10-17T14:34:03;25.70;50.90
48994;DHT22;34804;49.214;12.276;2022-10-17T14:36:36;25.40;50.80
48994;DHT22;34804;49.214;12.276;2022-10-17T14:39:06;25.30;51.80
48994;DHT22;34804;49.214;12.276;2022-10-17T14:41:42;25.80;50.30
48994;DHT22;34804;49.214;12.276;2022-10-17T14:44:28;26.40;50.90
48994;DHT22;34804;49.214;12.276;2022-10-17T14:46:59;26.60;48.50
48994;DHT22;34804;49.214;12.276;2022-10-17T14:49:40;26.60;49.20
48994;DHT22;34804;49.214;12.276;2022-10-17T14:54:46;26.70;50.10
48994;DHT22;34804;49.214;12.276;2022-10-17T14:59:54;26.40;50.70
48994;DHT22;34804;49.214;12.276;2022-10-17T15:02:26;26.00;50.90
48994;DHT22;34804;49.214;12.276;2022-10-17T15:04:53;25.80;52.70
48994;DHT22;34804;49.214;12.276;2022-10-17T15:07:21;25.70;52.50
48994;DHT22;34804;49.214;12.276;2022-10-17T15:09:50;25.50;53.80
48994;DHT22;34804;49.214;12.276;2022-10-17T15:12:20;25.80;53.20
48994;DHT22;34804;49.214;12.276;2022-10-17T15:14:48;25.50;53.90
48994;DHT22;34804;49.214;12.276;2022-10-17T15:17:17;25.50;54.30
48994;DHT22;34804;49.214;12.276;2022-10-17T15:19:47;25.80;55.20
48994;DHT22;34804;49.214;12.276;2022-10-17T15:22:14;25.60;55.80
48994;DHT22;34804;49.214;12.276;2022-10-17T15:24:41;25.40;54.60
48994;DHT22;34804;49.214;12.276;2022-10-17T15:27:15;25.00;56.10
48994;DHT22;34804;49.214;12.276;2022-10-17T15:29:42;24.50;58.00
48994;DHT22;34804;49.214;12.276;2022-10-17T15:32:11;23.70;59.90
48994;DHT22;34804;49.214;12.276;2022-10-17T15:34:38;23.10;62.00
48994;DHT22;34804;49.214;12.276;2022-10-17T15:37:06;22.90;62.70
48994;DHT22;34804;49.214;12.276;2022-10-17T15:39:39;22.50;64.60
48994;DHT22;34804;49.214;12.276;2022-10-17T15:42:10;22.10;65.50
48994;DHT22;34804;49.214;12.276;2022-10-17T15:44:37;21.70;67.10
48994;DHT22;34804;49.214;12.276;2022-10-17T15:47:10;21.40;67.80
48994;DHT22;34804;49.214;12.276;2022-10-17T15:49:44;21.30;67.60
48994;DHT22;34804;49.214;12.276;2022-10-17T15:52:10;21.10;68.50
48994;DHT22;34804;49.214;12.276;2022-10-17T15:54:37;20.90;69.20
48994;DHT22;34804;49.214;12.276;2022-10-17T15:57:04;20.80;69.60
48994;DHT22;34804;49.214;12.276;2022-10-17T15:59:32;20.70;70.10
48994;DHT22;34804;49.214;12.276;2022-10-17T16:02:00;20.50;71.20
48994;DHT22;34804;49.214;12.276;2022-10-17T16:04:26;20.30;71.90
48994;DHT22;34804;49.214;12.276;2022-10-17T16:06:56;20.00;72.90
48994;DHT22;34804;49.214;12.276;2022-10-17T16:09:22;19.80;73.60
48994;DHT22;34804;49.214;12.276;2022-10-17T16:11:49;19.60;74.40
48994;DHT22;34804;49.214;12.276;2022-10-17T16:14:16;19.30;75.60
48994;DHT22;34804;49.214;12.276;2022-10-17T16:16:43;19.00;76.80
48994;DHT22;34804;49.214;12.276;2022-10-17T16:19:10;18.80;77.90
48994;DHT22;34804;49.214;12.276;2022-10-17T16:21:39;18.60;78.70
48994;DHT22;34804;49.214;12.276;2022-10-17T16:24:09;18.30;80.20
48994;DHT22;34804;49.214;12.276;2022-10-17T16:26:37;18.10;80.50
48994;DHT22;34804;49.214;12.276;2022-10-17T16:29:04;17.80;81.20
48994;DHT22;34804;49.214;12.276;2022-10-17T16:31:34;17.70;82.10
48994;DHT22;34804;49.214;12.276;2022-10-17T16:34:03;17.50;82.10
48994;DHT22;34804;49.214;12.276;2022-10-17T16:36:30;17.30;83.10
48994;DHT22;34804;49.214;12.276;2022-10-17T16:38:57;17.10;83.60
48994;DHT22;34804;49.214;12.276;2022-10-17T16:41:33;16.90;84.30
48994;DHT22;34804;49.214;12.276;2022-10-17T16:44:03;16.80;84.80
48994;DHT22;34804;49.214;12.276;2022-10-17T16:46:31;16.80;85.00
48994;DHT22;34804;49.214;12.276;2022-10-17T16:48:58;16.70;84.70
48994;DHT22;34804;49.214;12.276;2022-10-17T16:51:25;16.50;85.50
48994;DHT22;34804;49.214;12.276;2022-10-17T16:53:54;16.40;86.10
48994;DHT22;34804;49.214;12.276;2022-10-17T16:56:23;16.30;86.00
48994;DHT22;34804;49.214;12.276;2022-10-17T16:58:51;16.20;86.50
48994;DHT22;34804;49.214;12.276;2022-10-17T17:01:20;16.00;86.50
48994;DHT22;34804;49.214;12.276;2022-10-17T17:03:49;15.80;87.40
48994;DHT22;34804;49.214;12.276;2022-10-17T17:06:19;15.70;88.20
48994;DHT22;34804;49.214;12.276;2022-10-17T17:08:46;15.60;88.50
48994;DHT22;34804;49.214;12.276;2022-10-17T17:11:15;15.60;88.30
48994;DHT22;34804;49.214;12.276;2022-10-17T17:13:42;15.50;88.60
48994;DHT22;34804;49.214;12.276;2022-10-17T17:16:14;15.50;88.30
48994;DHT22;34804;49.214;12.276;2022-10-17T17:18:42;15.40;88.50
48994;DHT22;34804;49.214;12.276;2022-10-17T17:21:09;15.30;88.50